Georgetown, IL

12:49 AM CDT on August 31, 2014 (GMT -0500)
Edgar County | Change Station
CLOSE
Current Station
Airport
Location: Paris,
Elevation: 653 ft
Nearby Weather Stations

Elev 653 ft 39.70 °N, 87.67 °W | Updated 14 minutes ago

Mostly Cloudy
Mostly Cloudy
72 °F
Feels Like 72 °F
N
7
Wind Variable Wind from South

Today
High -- | Low -- °F
--% Chance of Precip.
Yesterday
High -- | Low -- °F
Precip. -- in
6:17 AM 7:23 PM
Waxing Crescent, 28% visible
Pressure 29.99 in
Visibility 10.0 miles
Clouds Scattered Clouds 1200 ft
Mostly Cloudy 3700 ft
Mostly Cloudy 9500 ft
Dew Point 70 °F
Humidity 93%
Rainfall 0.00 in
Snow Depth Not available.
UV 0 out of 12
Pollen 8.60 out of 12
Air Quality Not available.
Flu Activity Not available.
METAR KPRG 310535Z AUTO 19006KT 10SM SCT012 BKN037 BKN095 22/21 A2999 RMK AO2 LTG DSNT N T02200209

More Conditions Fewer Conditions

Pressure 29.99 in
Visibility 10.0 miles
Clouds Scattered Clouds 1200 ft
Mostly Cloudy 3700 ft
Mostly Cloudy 9500 ft
Dew Point 70 °F
Humidity 93%
Rainfall 0.00 in
Snow Depth Not available.
UV 0 out of 12
Pollen 8.60 out of 12
Air Quality Not available.
Flu Activity Not available.
METAR KPRG 310535Z AUTO 19006KT 10SM SCT012 BKN037 BKN095 22/21 A2999 RMK AO2 LTG DSNT N T02200209

More Conditions Fewer Conditions

10-Day Weather Forecast

Almanac

Astronomy

Aug. 31, 2014 Rise Set
Actual Time 6:17 AM CDT 7:23 PM CDT
Civil Twilight 5:49 AM CDT 7:51 PM CDT
Nautical Twilight 5:16 AM CDT 8:24 PM CDT
Astronomical Twilight 4:41 AM CDT 8:58 PM CDT
Moon 12:03 PM CDT 10:38 PM CDT
Length of Visible Light 14h 01m
Length of Day
13h 06m
Tomorrow will be 2m 30s shorter.
Waxing Crescent, 28% of the Moon is Illuminated
Today
Waxing Crescent
Sep 2
First Quarter
Sep 8
Full
Sep 15
Last Quarter
Sep 24
New

Today's Extremes

State Highs State Lows

Community

WunderPhotos

Upload Photos

1,748,790 photos uploaded!

Nearby

Snow Depth

Station Depth Elevation
No new snow has been reported.

Earthquake Activity

City Distance Mag. Time & Date
No recent earthquake activity has been reported nearby.
Minimum magnitude displayed is 2.5.

Coastal Water Temperatures

Place Temperature
No Stations Reporting

Nearby Weather Stations